Time;durP1;ratioP1;P1;durP2;ratioP2;P2;SDS_P1;SDS_P2;PMS_P1;PMS_P2;Temp;Humidity;BMP_temperature;BMP_pressure;BME280_temperature;BME280_humidity;BME280_pressure;Samples;Min_cycle;Max_cycle;Signal;HPM_P1;HPM_P2
2023/05/07 00:02:03;;;;;;;2.95;2.75;;;;;;;;;;5076546;28;20029;-22
2023/05/07 00:04:35;;;;;;;2.50;2.22;;;;;;;;;;5076562;28;20052;-22
2023/05/07 00:07:02;;;;;;;2.63;2.53;;;;;;;;;;5076224;28;20067;-21
2023/05/07 00:09:28;;;;;;;2.40;2.30;;;;;;;;;;5076444;28;20028;-22
2023/05/07 00:11:54;;;;;;;2.30;2.20;;;;;;;;;;5076795;28;20029;-27
2023/05/07 00:14:20;;;;;;;2.72;2.63;;;;;;;;;;5076101;28;20048;-21
2023/05/07 00:16:47;;;;;;;2.58;2.47;;;;;;;;;;5075106;28;20029;-22
2023/05/07 00:19:13;;;;;;;2.60;2.40;;;;;;;;;;5075999;28;20352;-21
2023/05/07 00:21:39;;;;;;;2.17;2.08;;;;;;;;;;5076212;28;20020;-21
2023/05/07 00:24:05;;;;;;;2.88;2.67;;;;;;;;;;5075730;28;20024;-22
2023/05/07 00:26:31;;;;;;;2.60;2.40;;;;;;;;;;5076069;28;20363;-24
2023/05/07 00:28:57;;;;;;;2.33;2.22;;;;;;;;;;5075772;28;20085;-23
2023/05/07 00:31:23;;;;;;;2.00;1.90;;;;;;;;;;5075671;28;20029;-23
2023/05/07 00:33:49;;;;;;;2.67;2.50;;;;;;;;;;5076030;28;20024;-21
2023/05/07 00:36:16;;;;;;;2.22;2.13;;;;;;;;;;5075453;28;20029;-22
2023/05/07 00:38:42;;;;;;;2.35;2.25;;;;;;;;;;5075616;28;20024;-21
2023/05/07 00:41:08;;;;;;;2.30;2.20;;;;;;;;;;5075831;28;20538;-21
2023/05/07 00:43:34;;;;;;;2.30;2.20;;;;;;;;;;5075387;28;20029;-21
2023/05/07 00:46:00;;;;;;;2.40;2.30;;;;;;;;;;5075735;28;20024;-22
2023/05/07 00:48:27;;;;;;;2.38;2.28;;;;;;;;;;5075670;28;20024;-24
2023/05/07 00:50:53;;;;;;;2.30;2.20;;;;;;;;;;5075186;28;20087;-22
2023/05/07 00:53:19;;;;;;;2.58;2.47;;;;;;;;;;5074310;28;20023;-21
2023/05/07 00:55:45;;;;;;;2.38;2.28;;;;;;;;;;5075316;28;20032;-21
2023/05/07 00:58:11;;;;;;;2.42;2.33;;;;;;;;;;5075154;28;20021;-22
2023/05/07 01:00:37;;;;;;;2.60;2.50;;;;;;;;;;5075136;28;20032;-22
2023/05/07 01:03:03;;;;;;;2.60;2.40;;;;;;;;;;5075092;28;20028;-22
2023/05/07 01:05:30;;;;;;;2.70;2.50;;;;;;;;;;5075091;28;20024;-27
2023/05/07 01:07:57;;;;;;;2.15;2.05;;;;;;;;;;5075347;28;20021;-22
2023/05/07 01:10:24;;;;;;;2.70;2.50;;;;;;;;;;5075261;28;20029;-24
2023/05/07 01:12:50;;;;;;;2.60;2.50;;;;;;;;;;5075501;28;20060;-24
2023/05/07 01:15:17;;;;;;;2.10;2.00;;;;;;;;;;5075255;28;20352;-22
2023/05/07 01:17:43;;;;;;;2.10;2.00;;;;;;;;;;5075230;28;20021;-23
2023/05/07 01:20:10;;;;;;;3.53;2.00;;;;;;;;;;5075204;28;20418;-22
2023/05/07 01:22:39;;;;;;;2.08;1.98;;;;;;;;;;5075331;28;20352;-21
2023/05/07 01:25:07;;;;;;;2.25;2.15;;;;;;;;;;5075151;28;20031;-22
2023/05/07 01:27:33;;;;;;;2.55;2.45;;;;;;;;;;5074756;28;20035;-22
2023/05/07 01:30:00;;;;;;;2.00;1.90;;;;;;;;;;5074700;28;20471;-22
2023/05/07 01:32:38;;;;;;;2.38;2.28;;;;;;;;;;5074946;28;20024;-24
2023/05/07 01:35:05;;;;;;;2.03;1.92;;;;;;;;;;5074729;28;20020;-21
2023/05/07 01:37:32;;;;;;;2.10;2.00;;;;;;;;;;5074698;28;20017;-21
2023/05/07 01:39:58;;;;;;;2.38;2.28;;;;;;;;;;5074660;28;20025;-22
2023/05/07 01:42:24;;;;;;;2.25;2.15;;;;;;;;;;5074867;28;20522;-22
2023/05/07 01:44:50;;;;;;;2.10;2.00;;;;;;;;;;5074606;28;20021;-21
2023/05/07 01:47:16;;;;;;;2.30;2.20;;;;;;;;;;5074666;28;20074;-21
2023/05/07 01:49:43;;;;;;;2.20;2.10;;;;;;;;;;5074627;28;20498;-22
2023/05/07 01:52:11;;;;;;;2.20;2.10;;;;;;;;;;5074725;28;20024;-21
2023/05/07 01:54:38;;;;;;;2.50;2.35;;;;;;;;;;5074541;28;20041;-24
2023/05/07 01:57:04;;;;;;;2.30;2.20;;;;;;;;;;5074805;28;20024;-21
2023/05/07 01:59:30;;;;;;;2.28;2.17;;;;;;;;;;5074475;28;20153;-23
2023/05/07 02:01:56;;;;;;;2.30;2.20;;;;;;;;;;5074361;28;20036;-21
2023/05/07 02:04:22;;;;;;;2.03;1.92;;;;;;;;;;5074402;28;20463;-21
2023/05/07 02:06:48;;;;;;;2.20;2.10;;;;;;;;;;5074698;28;20363;-21
2023/05/07 02:09:14;;;;;;;2.25;2.15;;;;;;;;;;5074389;28;20044;-21
2023/05/07 02:11:41;;;;;;;2.17;2.08;;;;;;;;;;5074290;28;20035;-21
2023/05/07 02:14:07;;;;;;;2.05;1.95;;;;;;;;;;5074288;28;20089;-26
2023/05/07 02:16:33;;;;;;;2.10;2.00;;;;;;;;;;5074326;28;20435;-21
2023/05/07 02:18:59;;;;;;;2.10;2.00;;;;;;;;;;5074543;28;20028;-23
2023/05/07 02:21:25;;;;;;;2.50;2.40;;;;;;;;;;5074299;28;20355;-21
2023/05/07 02:23:51;;;;;;;1.73;1.67;;;;;;;;;;5074165;28;20103;-22
2023/05/07 02:26:18;;;;;;;2.20;2.10;;;;;;;;;;5074447;28;20098;-22
2023/05/07 02:28:44;;;;;;;1.85;1.75;;;;;;;;;;5074183;28;20025;-22
2023/05/07 02:31:10;;;;;;;2.08;1.98;;;;;;;;;;5074358;28;20093;-21
2023/05/07 02:33:36;;;;;;;2.20;2.10;;;;;;;;;;5074141;28;20021;-22
2023/05/07 02:36:09;;;;;;;1.90;1.80;;;;;;;;;;5074380;28;20021;-22
2023/05/07 02:38:35;;;;;;;1.88;1.77;;;;;;;;;;5074379;28;20028;-23
2023/05/07 02:41:01;;;;;;;2.20;2.10;;;;;;;;;;5074016;28;20032;-21
2023/05/07 02:43:28;;;;;;;2.28;2.17;;;;;;;;;;5074143;28;20039;-22
2023/05/07 02:46:07;;;;;;;2.08;1.98;;;;;;;;;;5074047;28;20434;-22
2023/05/07 02:48:33;;;;;;;2.33;2.22;;;;;;;;;;5074285;28;20096;-22
2023/05/07 02:51:00;;;;;;;2.22;2.13;;;;;;;;;;5073704;28;20048;-22
2023/05/07 02:53:27;;;;;;;1.80;1.70;;;;;;;;;;5074170;28;20104;-21
2023/05/07 02:55:53;;;;;;;2.00;1.90;;;;;;;;;;5073027;28;20134;-22
2023/05/07 02:58:20;;;;;;;2.17;2.08;;;;;;;;;;5076075;28;20024;-21
2023/05/07 03:00:46;;;;;;;2.22;2.13;;;;;;;;;;5077552;28;20028;-22
2023/05/07 03:03:12;;;;;;;2.10;2.00;;;;;;;;;;5077610;28;20048;-22
2023/05/07 03:05:38;;;;;;;1.95;1.85;;;;;;;;;;5077725;28;20041;-22
2023/05/07 03:08:04;;;;;;;2.20;2.10;;;;;;;;;;5078454;28;20108;-21
2023/05/07 03:10:31;;;;;;;2.15;2.05;;;;;;;;;;5077306;28;20064;-22
2023/05/07 03:12:57;;;;;;;1.77;1.67;;;;;;;;;;5077226;28;20078;-22
2023/05/07 03:15:23;;;;;;;2.05;1.95;;;;;;;;;;5076336;28;20028;-21
2023/05/07 03:17:49;;;;;;;2.17;2.08;;;;;;;;;;5077502;28;20027;-21
2023/05/07 03:20:15;;;;;;;1.80;1.70;;;;;;;;;;5077175;28;20356;-24
2023/05/07 03:22:41;;;;;;;2.20;2.10;;;;;;;;;;5076464;28;20052;-21
2023/05/07 03:25:08;;;;;;;1.77;1.67;;;;;;;;;;5077122;28;20029;-22
2023/05/07 03:27:34;;;;;;;1.90;1.80;;;;;;;;;;5077605;28;20056;-22
2023/05/07 03:30:00;;;;;;;1.92;1.83;;;;;;;;;;5077206;28;20401;-22
2023/05/07 03:32:26;;;;;;;1.77;1.67;;;;;;;;;;5077084;28;20020;-22
2023/05/07 03:34:53;;;;;;;1.92;1.83;;;;;;;;;;5076922;28;20102;-24
2023/05/07 03:37:19;;;;;;;1.80;1.70;;;;;;;;;;5077921;28;20024;-21
2023/05/07 03:39:45;;;;;;;1.75;1.65;;;;;;;;;;5076772;28;20053;-22
2023/05/07 03:42:11;;;;;;;2.22;2.13;;;;;;;;;;5076687;28;20028;-22
2023/05/07 03:44:37;;;;;;;1.63;1.52;;;;;;;;;;5076752;28;20062;-21
2023/05/07 03:47:04;;;;;;;2.08;1.98;;;;;;;;;;5076704;28;20020;-23
2023/05/07 03:49:30;;;;;;;1.95;1.85;;;;;;;;;;5076643;28;20082;-23
2023/05/07 03:51:56;;;;;;;2.35;2.25;;;;;;;;;;5076723;28;20029;-25
2023/05/07 03:54:22;;;;;;;2.08;1.98;;;;;;;;;;5076477;28;20028;-24
2023/05/07 03:56:48;;;;;;;2.20;2.10;;;;;;;;;;5076777;28;20351;-22
2023/05/07 03:59:15;;;;;;;1.63;1.52;;;;;;;;;;5076412;28;20036;-22
2023/05/07 04:01:41;;;;;;;1.92;1.83;;;;;;;;;;5076690;28;20024;-23
2023/05/07 04:04:07;;;;;;;1.65;1.58;;;;;;;;;;5076520;28;20037;-21
2023/05/07 04:06:33;;;;;;;1.77;1.67;;;;;;;;;;5076292;28;20039;-21
2023/05/07 04:08:59;;;;;;;1.60;1.50;;;;;;;;;;5076524;28;20025;-21
2023/05/07 04:11:25;;;;;;;2.10;2.00;;;;;;;;;;5076111;28;20054;-22
2023/05/07 04:13:51;;;;;;;2.00;1.90;;;;;;;;;;5076335;28;20021;-21
2023/05/07 04:16:17;;;;;;;1.95;1.85;;;;;;;;;;5076376;28;20032;-24
2023/05/07 04:18:44;;;;;;;1.40;1.30;;;;;;;;;;5076099;28;20049;-23
2023/05/07 04:21:16;;;;;;;1.77;1.67;;;;;;;;;;5075961;28;20102;-22
2023/05/07 04:23:42;;;;;;;2.00;1.90;;;;;;;;;;5075823;28;20024;-21
2023/05/07 04:26:08;;;;;;;1.90;1.80;;;;;;;;;;5074916;28;20340;-23
2023/05/07 04:28:35;;;;;;;1.90;1.80;;;;;;;;;;5075885;28;20035;-23
2023/05/07 04:31:01;;;;;;;1.52;1.42;;;;;;;;;;5075980;28;20355;-22
2023/05/07 04:33:27;;;;;;;1.88;1.77;;;;;;;;;;5075629;28;20028;-22
2023/05/07 04:35:53;;;;;;;1.80;1.70;;;;;;;;;;5075933;28;20024;-22
2023/05/07 04:38:19;;;;;;;1.75;1.65;;;;;;;;;;5075645;28;20029;-22
2023/05/07 04:40:46;;;;;;;1.75;1.65;;;;;;;;;;5076385;28;20024;-23
2023/05/07 04:43:13;;;;;;;1.52;1.52;;;;;;;;;;5075725;28;20025;-22
2023/05/07 04:45:41;;;;;;;1.80;1.70;;;;;;;;;;5075472;28;20028;-22
2023/05/07 04:48:07;;;;;;;1.73;1.67;;;;;;;;;;5075476;28;20074;-22
2023/05/07 04:50:33;;;;;;;1.95;1.85;;;;;;;;;;5075134;28;20045;-22
2023/05/07 04:52:59;;;;;;;1.65;1.55;;;;;;;;;;5075598;28;20328;-23
2023/05/07 04:55:25;;;;;;;2.50;2.40;;;;;;;;;;5075649;28;20107;-22
2023/05/07 04:57:52;;;;;;;1.88;1.77;;;;;;;;;;5076064;28;20017;-22
2023/05/07 05:00:19;;;;;;;1.45;1.45;;;;;;;;;;5075199;28;20028;-22
2023/05/07 05:02:45;;;;;;;2.00;1.90;;;;;;;;;;5075327;28;20082;-24
2023/05/07 05:05:12;;;;;;;1.88;1.77;;;;;;;;;;5075683;28;20343;-23
2023/05/07 05:07:38;;;;;;;1.42;1.42;;;;;;;;;;5075160;28;20536;-24
2023/05/07 05:10:06;;;;;;;1.67;1.58;;;;;;;;;;5075009;28;20028;-22
2023/05/07 05:12:32;;;;;;;1.73;1.63;;;;;;;;;;5075004;28;20047;-22
2023/05/07 05:14:58;;;;;;;1.70;1.60;;;;;;;;;;5075011;28;20039;-22
2023/05/07 05:17:24;;;;;;;1.40;1.40;;;;;;;;;;5074990;28;20048;-23
2023/05/07 05:19:50;;;;;;;1.52;1.42;;;;;;;;;;5074927;28;20025;-22
2023/05/07 05:22:16;;;;;;;1.60;1.50;;;;;;;;;;5074516;28;20347;-24
2023/05/07 05:24:42;;;;;;;1.90;1.80;;;;;;;;;;5075128;28;20108;-23
2023/05/07 05:27:09;;;;;;;1.75;1.65;;;;;;;;;;5074867;28;20024;-21
2023/05/07 05:29:35;;;;;;;1.40;1.40;;;;;;;;;;5074828;28;20024;-22
2023/05/07 05:32:01;;;;;;;1.60;1.50;;;;;;;;;;5074867;28;20494;-22
2023/05/07 05:34:27;;;;;;;1.80;1.70;;;;;;;;;;5075043;28;20056;-22
2023/05/07 05:36:53;;;;;;;1.52;1.42;;;;;;;;;;5074994;28;20021;-25
2023/05/07 05:39:21;;;;;;;2.28;2.17;;;;;;;;;;5074948;28;20070;-22
2023/05/07 05:41:47;;;;;;;1.90;1.80;;;;;;;;;;5074825;28;20078;-22
2023/05/07 05:44:13;;;;;;;1.52;1.42;;;;;;;;;;5074656;28;20025;-22
2023/05/07 05:46:39;;;;;;;1.63;1.60;;;;;;;;;;5074576;28;20020;-22
2023/05/07 05:49:05;;;;;;;1.55;1.52;;;;;;;;;;5074558;28;20470;-22
2023/05/07 05:51:31;;;;;;;1.70;1.60;;;;;;;;;;5074354;28;20056;-21
2023/05/07 05:53:57;;;;;;;1.75;1.65;;;;;;;;;;5074483;28;20024;-21
2023/05/07 05:56:24;;;;;;;1.92;1.83;;;;;;;;;;5074782;28;20028;-21
2023/05/07 05:58:50;;;;;;;1.40;1.40;;;;;;;;;;5074494;28;20017;-22
2023/05/07 06:01:17;;;;;;;1.75;1.65;;;;;;;;;;5073524;28;20096;-22
2023/05/07 06:03:43;;;;;;;2.05;1.95;;;;;;;;;;5074668;28;20042;-22
2023/05/07 06:06:09;;;;;;;1.60;1.50;;;;;;;;;;5074723;28;20414;-22
2023/05/07 06:08:36;;;;;;;1.80;1.70;;;;;;;;;;5074989;28;20082;-23
2023/05/07 06:11:02;;;;;;;1.73;1.63;;;;;;;;;;5074273;28;20020;-23
2023/05/07 06:13:29;;;;;;;1.73;1.63;;;;;;;;;;5074279;28;20104;-22
2023/05/07 06:15:55;;;;;;;1.70;1.60;;;;;;;;;;5074330;28;20046;-21
2023/05/07 06:18:21;;;;;;;1.83;1.73;;;;;;;;;;5074300;28;20021;-22
2023/05/07 06:20:47;;;;;;;1.67;1.58;;;;;;;;;;5074333;28;20027;-21
2023/05/07 06:23:14;;;;;;;1.40;1.40;;;;;;;;;;5074480;28;20024;-23
2023/05/07 06:25:40;;;;;;;1.60;1.50;;;;;;;;;;5074262;28;20109;-21
2023/05/07 06:28:08;;;;;;;1.55;1.45;;;;;;;;;;5074183;28;20040;-22
2023/05/07 06:30:34;;;;;;;1.30;1.30;;;;;;;;;;5074676;28;20055;-22
2023/05/07 06:33:00;;;;;;;1.70;1.60;;;;;;;;;;5075311;28;20051;-22
2023/05/07 06:35:26;;;;;;;1.50;1.45;;;;;;;;;;5078018;28;20359;-21
2023/05/07 06:37:52;;;;;;;1.75;1.65;;;;;;;;;;5077916;28;20036;-21
2023/05/07 06:40:18;;;;;;;2.00;1.90;;;;;;;;;;5078219;28;20347;-21
2023/05/07 06:42:45;;;;;;;1.60;1.50;;;;;;;;;;5077807;28;20032;-22
2023/05/07 06:45:11;;;;;;;1.75;1.65;;;;;;;;;;5078100;28;20029;-24
2023/05/07 06:47:37;;;;;;;1.92;1.83;;;;;;;;;;5078100;28;20033;-22
2023/05/07 06:50:03;;;;;;;1.92;1.83;;;;;;;;;;5077486;28;20117;-22
2023/05/07 06:52:29;;;;;;;1.85;1.75;;;;;;;;;;5077568;28;20025;-22
2023/05/07 06:54:55;;;;;;;1.90;1.80;;;;;;;;;;5077624;28;20063;-23
2023/05/07 06:57:21;;;;;;;1.60;1.50;;;;;;;;;;5077625;28;20027;-22
2023/05/07 06:59:47;;;;;;;1.80;1.70;;;;;;;;;;5076641;28;20032;-22
2023/05/07 07:02:13;;;;;;;1.67;1.58;;;;;;;;;;5078401;28;20385;-22
2023/05/07 07:04:40;;;;;;;2.35;2.22;;;;;;;;;;5077501;28;20024;-22
2023/05/07 07:07:06;;;;;;;1.80;1.70;;;;;;;;;;5077690;28;20051;-22
2023/05/07 07:09:32;;;;;;;1.85;1.75;;;;;;;;;;5077702;28;20439;-23
2023/05/07 07:11:58;;;;;;;1.50;1.33;;;;;;;;;;5077129;28;20119;-24
2023/05/07 07:14:24;;;;;;;2.08;1.98;;;;;;;;;;5077590;28;20463;-23
2023/05/07 07:16:50;;;;;;;1.50;1.50;;;;;;;;;;5077256;28;20031;-21
2023/05/07 07:19:16;;;;;;;1.98;1.88;;;;;;;;;;5077186;28;20061;-22
2023/05/07 07:21:43;;;;;;;1.95;1.85;;;;;;;;;;5077460;28;20032;-21
2023/05/07 07:24:09;;;;;;;1.70;1.60;;;;;;;;;;5077299;28;20078;-21
2023/05/07 07:26:35;;;;;;;1.75;1.65;;;;;;;;;;5077141;28;20020;-22
2023/05/07 07:29:01;;;;;;;1.85;1.75;;;;;;;;;;5077340;28;20104;-24
2023/05/07 07:31:27;;;;;;;1.83;1.73;;;;;;;;;;5076938;28;20040;-22
2023/05/07 07:33:53;;;;;;;1.85;1.75;;;;;;;;;;5076916;28;20032;-21
2023/05/07 07:36:19;;;;;;;1.92;1.83;;;;;;;;;;5076939;28;20359;-22
2023/05/07 07:38:45;;;;;;;1.65;1.58;;;;;;;;;;5076893;28;20039;-22
2023/05/07 07:41:11;;;;;;;1.63;1.52;;;;;;;;;;5076822;28;20441;-22
2023/05/07 07:43:37;;;;;;;1.60;1.50;;;;;;;;;;5076417;28;20029;-22
2023/05/07 07:46:04;;;;;;;1.73;1.63;;;;;;;;;;5076763;28;20040;-22
2023/05/07 07:48:30;;;;;;;3.05;1.58;;;;;;;;;;5076999;28;20394;-22
2023/05/07 07:50:56;;;;;;;1.70;1.60;;;;;;;;;;5076496;28;20101;-22
2023/05/07 07:53:22;;;;;;;1.95;1.85;;;;;;;;;;5076512;28;20040;-21
2023/05/07 07:55:48;;;;;;;1.48;1.48;;;;;;;;;;5076541;28;20028;-21
2023/05/07 07:58:14;;;;;;;1.92;1.83;;;;;;;;;;5076530;28;20095;-23
2023/05/07 08:00:40;;;;;;;1.67;1.58;;;;;;;;;;5076742;28;20139;-21
2023/05/07 08:03:07;;;;;;;2.00;1.90;;;;;;;;;;5076318;28;20444;-22
2023/05/07 08:05:33;;;;;;;2.03;1.92;;;;;;;;;;5076632;28;20355;-22
2023/05/07 08:07:59;;;;;;;1.65;1.58;;;;;;;;;;5076575;28;20016;-21
2023/05/07 08:10:25;;;;;;;1.63;1.52;;;;;;;;;;5076120;28;20031;-23
2023/05/07 08:12:51;;;;;;;1.35;1.25;;;;;;;;;;5076314;28;20025;-22
2023/05/07 08:15:18;;;;;;;1.55;1.50;;;;;;;;;;5076182;28;20025;-22
2023/05/07 08:17:44;;;;;;;1.65;1.63;;;;;;;;;;5076138;28;20107;-21
2023/05/07 08:20:10;;;;;;;1.20;1.20;;;;;;;;;;5076072;28;20035;-22
2023/05/07 08:22:37;;;;;;;1.58;1.50;;;;;;;;;;5076250;28;20017;-22
2023/05/07 08:25:03;;;;;;;1.60;1.50;;;;;;;;;;5075966;28;20038;-21
2023/05/07 08:27:29;;;;;;;1.60;1.50;;;;;;;;;;5075912;28;20035;-23
2023/05/07 08:29:56;;;;;;;1.20;1.20;;;;;;;;;;5075819;28;20016;-23
2023/05/07 08:32:22;;;;;;;1.70;1.60;;;;;;;;;;5075646;28;20028;-22
2023/05/07 08:34:48;;;;;;;1.40;1.40;;;;;;;;;;5076269;28;20021;-23
2023/05/07 08:37:14;;;;;;;1.90;1.80;;;;;;;;;;5076001;28;20028;-22
2023/05/07 08:39:40;;;;;;;1.90;1.80;;;;;;;;;;5075645;28;20125;-21
2023/05/07 08:42:07;;;;;;;1.58;1.48;;;;;;;;;;5075495;28;20085;-22
2023/05/07 08:44:38;;;;;;;1.35;1.35;;;;;;;;;;5075601;28;20494;-22
2023/05/07 08:47:07;;;;;;;1.50;1.40;;;;;;;;;;5075525;28;20032;-22
2023/05/07 08:49:34;;;;;;;1.33;1.33;;;;;;;;;;5075766;28;20054;-21
2023/05/07 08:52:01;;;;;;;1.20;1.20;;;;;;;;;;5075792;28;20039;-21
2023/05/07 08:54:29;;;;;;;1.85;1.75;;;;;;;;;;5075673;28;20028;-22
2023/05/07 08:56:55;;;;;;;1.73;1.63;;;;;;;;;;5074934;28;20017;-22
2023/05/07 08:59:21;;;;;;;2.10;2.00;;;;;;;;;;5075285;28;20025;-22
2023/05/07 09:01:47;;;;;;;1.50;1.40;;;;;;;;;;5075425;28;20081;-23
2023/05/07 09:04:13;;;;;;;1.67;1.58;;;;;;;;;;5075188;28;20025;-22
2023/05/07 09:06:41;;;;;;;1.38;1.27;;;;;;;;;;5075415;28;20025;-23
2023/05/07 09:09:08;;;;;;;1.33;1.33;;;;;;;;;;5075123;28;20021;-22
2023/05/07 09:11:34;;;;;;;1.52;1.50;;;;;;;;;;5075019;28;20033;-22
2023/05/07 09:14:03;;;;;;;1.50;1.40;;;;;;;;;;5075211;28;20400;-21
2023/05/07 09:16:30;;;;;;;1.70;1.60;;;;;;;;;;5074997;28;20502;-22
2023/05/07 09:18:57;;;;;;;1.38;1.33;;;;;;;;;;5075728;28;20029;-22
2023/05/07 09:21:24;;;;;;;1.60;1.50;;;;;;;;;;5074976;28;20171;-21
2023/05/07 09:23:54;;;;;;;1.45;1.42;;;;;;;;;;5075085;28;20049;-22
2023/05/07 09:26:23;;;;;;;1.70;1.60;;;;;;;;;;5074882;28;20040;-24
2023/05/07 09:28:50;;;;;;;1.48;1.48;;;;;;;;;;5074771;28;20577;-24
2023/05/07 09:31:16;;;;;;;1.67;1.58;;;;;;;;;;5075036;28;20119;-22
2023/05/07 09:33:42;;;;;;;1.75;1.65;;;;;;;;;;5074734;28;20091;-21
2023/05/07 09:36:10;;;;;;;1.77;1.67;;;;;;;;;;5073795;28;20364;-23
2023/05/07 09:38:37;;;;;;;2.00;1.90;;;;;;;;;;5074727;28;20028;-21
2023/05/07 09:41:07;;;;;;;1.75;1.65;;;;;;;;;;5074945;28;20365;-23
2023/05/07 09:43:37;;;;;;;2.38;2.28;;;;;;;;;;5074810;28;20036;-23
2023/05/07 09:46:13;;;;;;;1.70;1.60;;;;;;;;;;5074971;28;20339;-22
2023/05/07 09:48:40;;;;;;;1.58;1.48;;;;;;;;;;5074924;28;20029;-21
2023/05/07 09:51:11;;;;;;;1.80;1.70;;;;;;;;;;5074262;28;20044;-21
2023/05/07 09:53:38;;;;;;;1.75;1.65;;;;;;;;;;5074848;28;20029;-22
2023/05/07 09:56:04;;;;;;;1.88;1.77;;;;;;;;;;5074469;28;20025;-24
2023/05/07 09:58:31;;;;;;;2.13;1.98;;;;;;;;;;5074482;28;20032;-21
2023/05/07 10:00:57;;;;;;;1.77;1.67;;;;;;;;;;5074493;28;20035;-23
2023/05/07 10:03:24;;;;;;;1.65;1.55;;;;;;;;;;5074508;28;20109;-22
2023/05/07 10:05:51;;;;;;;1.80;1.70;;;;;;;;;;5075230;28;20107;-23
2023/05/07 10:08:19;;;;;;;1.85;1.75;;;;;;;;;;5077926;28;20036;-26
2023/05/07 10:10:45;;;;;;;1.52;1.42;;;;;;;;;;5078751;28;20028;-24
2023/05/07 10:13:12;;;;;;;1.98;1.88;;;;;;;;;;5078415;28;20088;-22
2023/05/07 10:15:38;;;;;;;2.08;1.98;;;;;;;;;;5077489;28;20351;-21
2023/05/07 10:18:05;;;;;;;1.80;1.70;;;;;;;;;;5078387;28;20052;-22
2023/05/07 10:20:32;;;;;;;2.15;2.05;;;;;;;;;;5078359;28;20097;-22
2023/05/07 10:22:59;;;;;;;1.63;1.52;;;;;;;;;;5078178;28;20070;-22
2023/05/07 10:25:32;;;;;;;1.70;1.60;;;;;;;;;;5078280;28;20409;-21
2023/05/07 10:28:01;;;;;;;1.65;1.55;;;;;;;;;;5078450;28;20389;-21
2023/05/07 10:30:44;;;;;;;1.83;1.73;;;;;;;;;;5078369;28;20032;-22
2023/05/07 10:33:12;;;;;;;2.38;2.22;;;;;;;;;;5078231;28;20040;-21
2023/05/07 10:35:41;;;;;;;1.92;1.73;;;;;;;;;;5078313;28;20025;-22
2023/05/07 10:38:07;;;;;;;1.90;1.80;;;;;;;;;;5077955;28;20396;-22
2023/05/07 10:40:33;;;;;;;1.65;1.55;;;;;;;;;;5077975;28;20024;-22
2023/05/07 10:43:06;;;;;;;2.05;1.95;;;;;;;;;;5077817;28;20066;-22
2023/05/07 10:45:32;;;;;;;1.30;1.30;;;;;;;;;;5078139;28;20032;-21
2023/05/07 10:48:10;;;;;;;1.70;1.60;;;;;;;;;;5076827;28;20044;-21
2023/05/07 10:50:37;;;;;;;2.15;2.05;;;;;;;;;;5077749;28;20048;-22
2023/05/07 10:53:18;;;;;;;1.52;1.48;;;;;;;;;;5077620;28;20032;-22
2023/05/07 10:55:52;;;;;;;2.53;2.10;;;;;;;;;;5077625;28;20028;-22
2023/05/07 10:58:27;;;;;;;2.00;1.90;;;;;;;;;;5077893;28;20036;-22
2023/05/07 11:00:59;;;;;;;2.45;2.35;;;;;;;;;;5077867;28;20032;-21
2023/05/07 11:03:26;;;;;;;2.65;2.50;;;;;;;;;;5076637;28;20112;-22
2023/05/07 11:06:11;;;;;;;1.65;1.55;;;;;;;;;;5077770;28;20033;-21
2023/05/07 11:08:55;;;;;;;1.65;1.55;;;;;;;;;;5077715;28;20025;-23
2023/05/07 11:12:00;;;;;;;1.90;1.80;;;;;;;;;;5077843;28;20029;-22
2023/05/07 11:14:41;;;;;;;2.10;2.00;;;;;;;;;;5036258;28;20056;-22
2023/05/07 11:17:07;;;;;;;1.50;1.50;;;;;;;;;;5035780;28;20121;-22
2023/05/07 11:19:52;;;;;;;1.67;1.58;;;;;;;;;;5059171;28;20116;-22
2023/05/07 11:22:35;;;;;;;1.80;1.70;;;;;;;;;;5077063;28;20033;-22
2023/05/07 11:25:01;;;;;;;2.20;2.10;;;;;;;;;;5077383;28;20089;-22
2023/05/07 11:27:28;;;;;;;1.60;1.50;;;;;;;;;;5077123;28;20034;-21
2023/05/07 11:29:54;;;;;;;2.03;1.92;;;;;;;;;;5077338;28;20056;-22
2023/05/07 11:32:38;;;;;;;1.80;1.70;;;;;;;;;;5076812;28;20028;-21
2023/05/07 11:35:05;;;;;;;2.35;2.03;;;;;;;;;;5077536;28;20028;-21
2023/05/07 11:37:31;;;;;;;1.95;1.85;;;;;;;;;;5076846;28;20112;-21
2023/05/07 11:40:05;;;;;;;2.38;2.28;;;;;;;;;;5077130;28;20020;-21
2023/05/07 11:42:31;;;;;;;1.88;1.77;;;;;;;;;;5077030;28;20324;-22
2023/05/07 11:44:57;;;;;;;1.77;1.67;;;;;;;;;;5077022;28;20074;-22
2023/05/07 11:47:25;;;;;;;1.98;1.88;;;;;;;;;;5077020;28;20333;-23
2023/05/07 11:49:52;;;;;;;2.45;2.30;;;;;;;;;;5076513;28;20393;-22
2023/05/07 11:52:18;;;;;;;1.92;1.83;;;;;;;;;;5075684;28;20044;-22
2023/05/07 11:54:50;;;;;;;1.98;1.88;;;;;;;;;;5076619;28;20082;-25
2023/05/07 11:57:17;;;;;;;2.10;2.00;;;;;;;;;;5075571;28;20029;-23
2023/05/07 11:59:49;;;;;;;2.30;2.20;;;;;;;;;;5076514;28;20074;-22
2023/05/07 12:02:16;;;;;;;1.98;1.88;;;;;;;;;;5076880;28;20024;-22
2023/05/07 12:04:42;;;;;;;2.00;1.90;;;;;;;;;;5076385;28;20036;-21
2023/05/07 12:07:14;;;;;;;2.20;2.10;;;;;;;;;;5076304;28;20500;-21
2023/05/07 12:09:41;;;;;;;1.90;1.80;;;;;;;;;;5076345;28;20028;-21
2023/05/07 12:12:07;;;;;;;2.38;2.28;;;;;;;;;;5076108;28;20356;-26
2023/05/07 12:14:37;;;;;;;1.80;1.70;;;;;;;;;;5076452;28;20023;-21
2023/05/07 12:17:04;;;;;;;2.03;1.92;;;;;;;;;;5076137;28;20020;-22
2023/05/07 12:19:31;;;;;;;2.15;2.05;;;;;;;;;;5076033;28;20020;-21
2023/05/07 12:21:57;;;;;;;1.80;1.70;;;;;;;;;;5076246;28;20025;-23
2023/05/07 12:24:23;;;;;;;2.15;2.05;;;;;;;;;;5076029;28;20029;-22
2023/05/07 12:26:50;;;;;;;2.20;2.10;;;;;;;;;;5076244;28;20094;-23
2023/05/07 12:29:16;;;;;;;2.15;2.05;;;;;;;;;;5076133;28;20033;-22
2023/05/07 12:31:42;;;;;;;1.80;1.70;;;;;;;;;;5074997;28;20354;-22
2023/05/07 12:34:08;;;;;;;2.20;2.10;;;;;;;;;;5075680;28;20035;-21
2023/05/07 12:36:38;;;;;;;1.92;1.83;;;;;;;;;;5075794;28;20021;-21
2023/05/07 12:39:05;;;;;;;1.83;1.73;;;;;;;;;;5075675;28;20078;-23
2023/05/07 12:41:36;;;;;;;2.10;2.00;;;;;;;;;;5075519;28;20078;-24
2023/05/07 12:44:05;;;;;;;2.15;2.05;;;;;;;;;;5075815;28;20036;-22
2023/05/07 12:46:31;;;;;;;1.95;1.85;;;;;;;;;;5075508;28;20525;-25
2023/05/07 12:48:57;;;;;;;2.08;1.98;;;;;;;;;;5075489;28;20126;-23
2023/05/07 12:51:23;;;;;;;1.92;1.83;;;;;;;;;;5075245;28;20040;-24
2023/05/07 12:53:49;;;;;;;1.90;1.80;;;;;;;;;;5075647;28;20024;-22
2023/05/07 12:56:16;;;;;;;1.80;1.70;;;;;;;;;;5075370;28;20444;-22
2023/05/07 12:58:42;;;;;;;1.80;1.70;;;;;;;;;;5075355;28;20021;-21
2023/05/07 13:01:09;;;;;;;2.10;2.00;;;;;;;;;;5075272;28;20043;-22
2023/05/07 13:03:36;;;;;;;1.88;1.77;;;;;;;;;;5075132;28;20033;-22
2023/05/07 13:06:04;;;;;;;1.83;1.73;;;;;;;;;;5075083;28;20062;-22
2023/05/07 13:08:30;;;;;;;1.70;1.60;;;;;;;;;;5075102;28;20108;-22
2023/05/07 13:10:57;;;;;;;1.90;1.80;;;;;;;;;;5075278;28;20104;-22
2023/05/07 13:13:23;;;;;;;2.03;1.92;;;;;;;;;;5075000;28;20100;-21
2023/05/07 13:15:49;;;;;;;1.92;1.83;;;;;;;;;;5075007;28;20029;-22
2023/05/07 13:18:15;;;;;;;2.17;2.08;;;;;;;;;;5075219;28;20020;-22
2023/05/07 13:20:41;;;;;;;1.95;1.85;;;;;;;;;;5075017;28;20383;-22
2023/05/07 13:23:08;;;;;;;2.13;2.03;;;;;;;;;;5074793;28;20031;-21
2023/05/07 13:25:34;;;;;;;1.90;1.80;;;;;;;;;;5074901;28;20031;-25
2023/05/07 13:28:00;;;;;;;2.00;1.90;;;;;;;;;;5075104;28;20051;-23
2023/05/07 13:30:26;;;;;;;2.15;2.05;;;;;;;;;;5074745;28;20490;-21
2023/05/07 13:32:56;;;;;;;2.53;2.42;;;;;;;;;;5073760;28;20452;-22
2023/05/07 13:35:22;;;;;;;2.05;1.95;;;;;;;;;;5074699;28;20074;-22
2023/05/07 13:37:49;;;;;;;1.83;1.73;;;;;;;;;;5074995;28;20027;-21
2023/05/07 13:40:15;;;;;;;2.33;2.22;;;;;;;;;;5074711;28;20351;-22
2023/05/07 13:42:41;;;;;;;2.10;1.77;;;;;;;;;;5074316;28;20024;-22
2023/05/07 13:45:08;;;;;;;2.15;2.05;;;;;;;;;;5074935;28;20028;-22
2023/05/07 13:47:34;;;;;;;2.00;1.90;;;;;;;;;;5074670;28;20103;-22
2023/05/07 13:50:00;;;;;;;2.25;2.15;;;;;;;;;;5074598;28;20091;-25
2023/05/07 13:52:28;;;;;;;2.13;2.03;;;;;;;;;;5074357;28;20044;-21
2023/05/07 13:54:54;;;;;;;1.88;1.77;;;;;;;;;;5074566;28;20360;-22
2023/05/07 13:57:21;;;;;;;2.28;2.17;;;;;;;;;;5074784;28;20107;-21
2023/05/07 13:59:47;;;;;;;2.33;2.22;;;;;;;;;;5074494;28;20029;-22
2023/05/07 14:02:13;;;;;;;2.28;2.17;;;;;;;;;;5074422;28;20391;-26
2023/05/07 14:04:39;;;;;;;1.88;1.77;;;;;;;;;;5074464;28;20074;-21
2023/05/07 14:07:05;;;;;;;2.05;1.95;;;;;;;;;;5074401;28;20524;-23
2023/05/07 14:09:31;;;;;;;2.17;2.08;;;;;;;;;;5074713;28;20141;-23
2023/05/07 14:11:57;;;;;;;2.40;2.30;;;;;;;;;;5074312;28;20344;-22
2023/05/07 14:14:23;;;;;;;2.10;2.00;;;;;;;;;;5074681;28;20458;-22
2023/05/07 14:16:49;;;;;;;2.05;1.95;;;;;;;;;;5074394;28;20048;-22
2023/05/07 14:19:15;;;;;;;2.00;1.90;;;;;;;;;;5074354;28;20352;-22
2023/05/07 14:21:42;;;;;;;2.22;2.10;;;;;;;;;;5074619;28;20074;-21
2023/05/07 14:24:08;;;;;;;1.98;1.88;;;;;;;;;;5074226;28;20039;-22
2023/05/07 14:26:34;;;;;;;2.00;1.90;;;;;;;;;;5074555;28;20107;-23
2023/05/07 14:29:00;;;;;;;1.85;1.75;;;;;;;;;;5074244;28;20028;-22
2023/05/07 14:31:27;;;;;;;1.98;1.88;;;;;;;;;;5074424;28;20138;-21
2023/05/07 14:33:53;;;;;;;2.40;2.30;;;;;;;;;;5074127;28;20016;-22
2023/05/07 14:36:20;;;;;;;1.92;1.83;;;;;;;;;;5074142;28;20107;-22
2023/05/07 14:38:47;;;;;;;1.83;1.73;;;;;;;;;;5074198;28;20024;-22
2023/05/07 14:41:13;;;;;;;2.05;1.95;;;;;;;;;;5074398;28;20108;-22
2023/05/07 14:43:39;;;;;;;1.80;1.70;;;;;;;;;;5073998;28;20028;-22